createdAt,value
2023-05-14T00:01:53.671Z,9.27
2023-05-14T00:04:20.539Z,9.02
2023-05-14T00:06:47.901Z,9.65
2023-05-14T00:09:14.815Z,9.02
2023-05-14T00:11:41.621Z,8.90
2023-05-14T00:14:08.499Z,8.95
2023-05-14T00:16:35.386Z,9.10
2023-05-14T00:19:02.391Z,9.52
2023-05-14T00:21:29.258Z,8.88
2023-05-14T00:23:56.057Z,9.10
2023-05-14T00:26:22.892Z,9.90
2023-05-14T00:28:50.259Z,9.88
2023-05-14T00:31:17.111Z,9.10
2023-05-14T00:33:43.992Z,10.02
2023-05-14T00:36:10.869Z,9.70
2023-05-14T00:38:37.695Z,9.98
2023-05-14T00:41:04.645Z,10.02
2023-05-14T00:43:33.168Z,10.25
2023-05-14T00:46:00.965Z,9.98
2023-05-14T00:48:28.281Z,10.70
2023-05-14T00:50:55.280Z,9.73
2023-05-14T00:53:22.475Z,10.40
2023-05-14T00:55:50.470Z,9.95
2023-05-14T00:58:18.963Z,10.52
2023-05-14T01:00:46.210Z,10.23
2023-05-14T01:03:33.761Z,11.20
2023-05-14T01:06:23.649Z,11.10
2023-05-14T01:09:12.549Z,11.15
2023-05-14T01:11:54.407Z,9.70
2023-05-14T01:14:33.641Z,11.57
2023-05-14T01:17:04.822Z,10.60
2023-05-14T01:19:44.463Z,11.85
2023-05-14T01:22:13.254Z,11.35
2023-05-14T01:24:41.153Z,11.18
2023-05-14T01:27:08.065Z,11.13
2023-05-14T01:29:42.158Z,11.35
2023-05-14T01:32:10.625Z,10.77
2023-05-14T01:34:40.492Z,11.25
2023-05-14T01:37:11.876Z,12.07
2023-05-14T01:39:42.187Z,12.25
2023-05-14T01:42:10.879Z,11.95
2023-05-14T01:44:37.872Z,12.45
2023-05-14T01:47:04.952Z,11.90
2023-05-14T01:49:32.603Z,11.95
2023-05-14T01:51:59.447Z,11.95
2023-05-14T01:54:26.257Z,12.65
2023-05-14T01:56:53.039Z,12.48
2023-05-14T01:59:19.859Z,12.50
2023-05-14T02:01:47.216Z,12.15
2023-05-14T02:04:14.280Z,12.90
2023-05-14T02:06:41.803Z,12.15
2023-05-14T02:09:08.642Z,11.85
2023-05-14T02:11:35.749Z,12.38
2023-05-14T02:14:03.907Z,13.82
2023-05-14T02:16:30.736Z,13.43
2023-05-14T02:18:57.646Z,12.95
2023-05-14T02:21:24.629Z,11.50
2023-05-14T02:23:51.602Z,12.40
2023-05-14T02:26:18.450Z,13.40
2023-05-14T02:28:45.892Z,12.55
2023-05-14T02:31:13.274Z,13.20
2023-05-14T02:33:40.287Z,13.35
2023-05-14T02:36:07.490Z,13.52
2023-05-14T02:38:34.379Z,13.43
2023-05-14T02:41:01.154Z,12.52
2023-05-14T02:43:28.105Z,13.07
2023-05-14T02:45:54.877Z,12.45
2023-05-14T02:48:21.930Z,12.98
2023-05-14T02:50:51.489Z,13.32
2023-05-14T02:53:18.766Z,13.38
2023-05-14T02:55:45.588Z,13.00
2023-05-14T02:58:12.367Z,13.98
2023-05-14T03:00:39.255Z,13.05
2023-05-14T03:03:06.887Z,12.15
2023-05-14T03:05:34.250Z,13.00
2023-05-14T03:08:01.092Z,14.52
2023-05-14T03:10:27.941Z,13.77
2023-05-14T03:12:55.128Z,13.63
2023-05-14T03:15:21.973Z,14.60
2023-05-14T03:17:50.198Z,14.57
2023-05-14T03:20:17.221Z,14.23
2023-05-14T03:22:44.117Z,13.68
2023-05-14T03:25:11.181Z,13.93
2023-05-14T03:27:38.402Z,14.88
2023-05-14T03:30:06.248Z,15.10
2023-05-14T03:32:33.173Z,15.35
2023-05-14T03:35:00.052Z,14.60
2023-05-14T03:37:26.873Z,14.40
2023-05-14T03:39:53.676Z,15.57
2023-05-14T03:42:20.711Z,14.98
2023-05-14T03:44:47.885Z,15.27
2023-05-14T03:47:14.740Z,15.43
2023-05-14T03:49:41.631Z,14.75
2023-05-14T03:52:10.691Z,15.65
2023-05-14T03:54:38.546Z,15.75
2023-05-14T03:57:05.504Z,15.98
2023-05-14T03:59:32.366Z,14.95
2023-05-14T04:01:59.214Z,15.50
2023-05-14T04:04:26.436Z,15.85
2023-05-14T04:06:54.549Z,15.43
2023-05-14T04:09:21.424Z,14.90
2023-05-14T04:11:48.188Z,17.00
2023-05-14T04:14:15.067Z,16.67
2023-05-14T04:16:43.117Z,16.02
2023-05-14T04:19:10.108Z,17.00
2023-05-14T04:21:36.930Z,18.05
2023-05-14T04:24:04.071Z,16.67
2023-05-14T04:26:30.852Z,16.35
2023-05-14T04:28:58.318Z,16.92
2023-05-14T04:31:25.121Z,15.60
2023-05-14T04:33:51.885Z,16.95
2023-05-14T04:36:18.688Z,17.35
2023-05-14T04:38:45.507Z,16.48
2023-05-14T04:41:12.355Z,16.15
2023-05-14T04:43:40.102Z,15.98
2023-05-14T04:46:07.027Z,16.05
2023-05-14T04:48:33.898Z,16.90
2023-05-14T04:51:01.081Z,15.80
2023-05-14T04:53:27.911Z,14.75
2023-05-14T04:55:54.722Z,15.63
2023-05-14T04:58:23.556Z,15.63
2023-05-14T05:00:50.682Z,15.27
2023-05-14T05:03:17.758Z,15.50
2023-05-14T05:05:44.599Z,15.88
2023-05-14T05:08:11.534Z,16.33
2023-05-14T05:10:38.364Z,17.23
2023-05-14T05:13:05.245Z,14.85
2023-05-14T05:15:32.105Z,15.38
2023-05-14T05:17:58.984Z,16.33
2023-05-14T05:20:25.991Z,16.40
2023-05-14T05:22:52.831Z,16.20
2023-05-14T05:25:19.758Z,15.52
2023-05-14T05:27:46.598Z,15.57
2023-05-14T05:30:13.460Z,16.40
2023-05-14T05:32:40.737Z,16.60
2023-05-14T05:35:08.123Z,14.80
2023-05-14T05:37:34.943Z,14.95
2023-05-14T05:40:01.724Z,16.27
2023-05-14T05:42:28.615Z,14.85
2023-05-14T05:44:56.317Z,16.33
2023-05-14T05:47:23.436Z,15.18
2023-05-14T05:49:50.229Z,15.68
2023-05-14T05:52:17.203Z,14.88
2023-05-14T05:54:44.024Z,14.60
2023-05-14T05:57:10.807Z,15.07
2023-05-14T05:59:37.580Z,15.23
2023-05-14T06:02:19.542Z,15.25
2023-05-14T06:04:46.831Z,15.05
2023-05-14T06:07:13.689Z,15.40
2023-05-14T06:09:40.486Z,15.02
2023-05-14T06:12:07.840Z,14.57
2023-05-14T06:14:34.627Z,15.93
2023-05-14T06:17:01.731Z,14.15
2023-05-14T06:19:28.697Z,14.75
2023-05-14T06:21:55.994Z,15.13
2023-05-14T06:24:22.828Z,14.57
2023-05-14T06:26:49.626Z,14.20
2023-05-14T06:29:16.423Z,14.57
2023-05-14T06:31:43.555Z,15.52
2023-05-14T06:34:10.798Z,15.45
2023-05-14T06:36:37.635Z,15.35
2023-05-14T06:39:04.505Z,13.75
2023-05-14T06:41:31.333Z,14.23
2023-05-14T06:43:58.253Z,14.15
2023-05-14T06:46:25.108Z,15.05
2023-05-14T06:48:51.913Z,14.48
2023-05-14T06:51:18.753Z,13.57
2023-05-14T06:53:46.804Z,15.32
2023-05-14T06:56:14.681Z,14.93
2023-05-14T06:58:41.480Z,15.75
2023-05-14T07:01:08.566Z,15.27
2023-05-14T07:03:35.424Z,14.13
2023-05-14T07:06:02.320Z,15.05
2023-05-14T07:08:29.125Z,14.02
2023-05-14T07:10:57.363Z,13.85
2023-05-14T07:13:26.338Z,14.57
2023-05-14T07:15:57.385Z,13.60
2023-05-14T07:18:24.244Z,13.95
2023-05-14T07:20:51.049Z,13.75
2023-05-14T07:23:19.749Z,13.40
2023-05-14T07:25:46.882Z,13.10
2023-05-14T07:28:13.914Z,13.43
2023-05-14T07:30:40.683Z,14.02
2023-05-14T07:33:07.574Z,13.27
2023-05-14T07:35:34.538Z,13.32
2023-05-14T07:38:01.639Z,13.55
2023-05-14T07:40:28.388Z,13.30
2023-05-14T07:42:55.121Z,13.18
2023-05-14T07:45:22.144Z,13.38
2023-05-14T07:47:51.938Z,13.88
2023-05-14T07:50:19.524Z,13.23
2023-05-14T07:52:46.462Z,12.48
2023-05-14T07:55:13.244Z,12.73
2023-05-14T07:57:40.477Z,12.73
2023-05-14T08:00:08.277Z,13.80
2023-05-14T08:02:41.167Z,11.95
2023-05-14T08:05:09.813Z,13.38
2023-05-14T08:07:36.762Z,13.65
2023-05-14T08:10:04.274Z,13.45
2023-05-14T08:12:31.711Z,13.68
2023-05-14T08:14:58.729Z,13.80
2023-05-14T08:17:25.557Z,14.63
2023-05-14T08:19:52.987Z,13.80
2023-05-14T08:22:19.975Z,13.27
2023-05-14T08:24:46.770Z,14.65
2023-05-14T08:27:13.591Z,14.75
2023-05-14T08:29:40.429Z,15.95
2023-05-14T08:32:19.385Z,13.98
2023-05-14T08:34:50.120Z,14.75
2023-05-14T08:37:16.920Z,14.65
2023-05-14T08:39:43.885Z,13.52
2023-05-14T08:42:13.742Z,13.23
2023-05-14T08:44:52.432Z,14.50
2023-05-14T08:47:23.864Z,13.85
2023-05-14T08:50:09.386Z,13.38
2023-05-14T08:52:37.288Z,13.00
2023-05-14T08:55:06.848Z,12.25
2023-05-14T08:57:34.582Z,11.30
2023-05-14T09:00:08.283Z,11.25
2023-05-14T09:02:36.875Z,12.50
2023-05-14T09:05:04.288Z,11.77
2023-05-14T09:07:31.785Z,10.30
2023-05-14T09:09:59.317Z,10.80
2023-05-14T09:12:26.288Z,10.13
2023-05-14T09:14:53.636Z,11.15
2023-05-14T09:17:20.916Z,12.18
2023-05-14T09:19:49.231Z,11.13
2023-05-14T09:22:18.272Z,10.88
2023-05-14T09:24:46.225Z,11.13
2023-05-14T09:27:20.797Z,10.43
2023-05-14T09:29:48.662Z,9.88
2023-05-14T09:32:15.641Z,9.82
2023-05-14T09:34:42.444Z,10.00
2023-05-14T09:37:10.264Z,9.90
2023-05-14T09:39:38.910Z,9.35
2023-05-14T09:42:06.378Z,9.70
2023-05-14T09:44:33.297Z,9.15
2023-05-14T09:47:00.350Z,10.18
2023-05-14T09:49:27.172Z,9.27
2023-05-14T09:51:53.945Z,8.57
2023-05-14T09:54:20.822Z,8.30
2023-05-14T09:56:47.692Z,8.60
2023-05-14T09:59:14.997Z,8.55
2023-05-14T10:01:44.198Z,9.82
2023-05-14T10:04:12.842Z,9.77
2023-05-14T10:06:42.225Z,9.27
2023-05-14T10:09:16.178Z,9.15
2023-05-14T10:11:45.530Z,8.75
2023-05-14T10:14:53.272Z,9.85
2023-05-14T10:17:26.033Z,9.00
2023-05-14T10:19:57.346Z,8.50
2023-05-14T10:22:30.883Z,8.55
2023-05-14T10:24:57.904Z,8.00
2023-05-14T10:27:25.679Z,7.97
2023-05-14T10:29:54.730Z,7.15
2023-05-14T10:32:25.930Z,7.10
2023-05-14T10:34:54.018Z,6.22
2023-05-14T10:37:23.998Z,6.97
2023-05-14T10:39:54.140Z,7.78
2023-05-14T10:42:40.754Z,7.70
2023-05-14T10:45:10.770Z,7.40
2023-05-14T10:47:47.197Z,6.43
2023-05-14T10:50:17.729Z,6.53
2023-05-14T10:52:45.924Z,6.13
2023-05-14T10:55:15.366Z,6.95
2023-05-14T10:57:45.054Z,5.82
2023-05-14T11:00:14.508Z,6.05
2023-05-14T11:02:46.842Z,6.07
2023-05-14T11:05:17.711Z,6.43
2023-05-14T11:07:50.067Z,6.32
2023-05-14T11:10:21.494Z,5.30
2023-05-14T11:12:51.194Z,5.80
2023-05-14T11:15:21.184Z,6.32
2023-05-14T11:17:50.557Z,6.38
2023-05-14T11:20:19.217Z,6.45
2023-05-14T11:22:48.095Z,6.28
2023-05-14T11:25:15.730Z,5.65
2023-05-14T11:27:47.992Z,5.85
2023-05-14T11:30:18.401Z,6.30
2023-05-14T11:32:47.789Z,6.40
2023-05-14T11:35:15.567Z,5.95
2023-05-14T11:37:43.721Z,5.55
2023-05-14T11:40:19.052Z,5.05
2023-05-14T11:42:46.075Z,5.53
2023-05-14T11:45:25.594Z,5.03
2023-05-14T11:47:54.739Z,4.63
2023-05-14T11:50:23.130Z,5.53
2023-05-14T11:52:51.001Z,5.25
2023-05-14T11:55:17.972Z,5.60
2023-05-14T11:57:44.997Z,4.90
2023-05-14T12:00:14.516Z,4.82
2023-05-14T12:02:41.737Z,4.80
2023-05-14T12:05:11.714Z,4.25
2023-05-14T12:07:39.637Z,3.97
2023-05-14T12:10:07.695Z,4.38
2023-05-14T12:12:37.136Z,3.97
2023-05-14T12:15:13.539Z,4.50
2023-05-14T12:17:40.825Z,4.80
2023-05-14T12:20:12.481Z,4.22
2023-05-14T12:22:42.335Z,4.43
2023-05-14T12:25:13.833Z,3.85
2023-05-14T12:27:44.780Z,4.03
2023-05-14T12:30:27.516Z,4.70
2023-05-14T12:32:54.586Z,5.05
2023-05-14T12:35:22.837Z,5.15
2023-05-14T12:37:50.066Z,5.35
2023-05-14T12:40:16.910Z,5.38
2023-05-14T12:42:43.688Z,5.45
2023-05-14T12:45:11.401Z,5.35
2023-05-14T12:47:38.280Z,3.92
2023-05-14T12:50:06.358Z,4.70
2023-05-14T12:52:38.427Z,4.80
2023-05-14T12:55:09.101Z,4.50
2023-05-14T12:57:37.117Z,5.20
2023-05-14T13:00:07.104Z,5.88
2023-05-14T13:02:42.525Z,5.38
2023-05-14T13:05:13.919Z,5.93
2023-05-14T13:07:40.936Z,4.22
2023-05-14T13:10:08.728Z,3.45
2023-05-14T13:12:35.730Z,3.40
2023-05-14T13:15:02.844Z,3.80
2023-05-14T13:17:30.347Z,3.53
2023-05-14T13:19:57.334Z,3.58
2023-05-14T13:22:24.312Z,3.80
2023-05-14T13:24:51.186Z,4.50
2023-05-14T13:27:18.088Z,4.30
2023-05-14T13:29:44.882Z,4.95
2023-05-14T13:32:11.781Z,4.93
2023-05-14T13:34:38.574Z,4.82
2023-05-14T13:37:05.542Z,5.38
2023-05-14T13:39:32.414Z,5.35
2023-05-14T13:41:59.243Z,5.07
2023-05-14T13:44:26.137Z,4.95
2023-05-14T13:46:53.238Z,5.40
2023-05-14T13:49:20.193Z,4.95
2023-05-14T13:51:46.997Z,5.60
2023-05-14T13:54:13.780Z,4.38
2023-05-14T13:56:40.709Z,5.40
2023-05-14T13:59:07.635Z,5.38
2023-05-14T14:01:34.697Z,5.75
2023-05-14T14:04:01.608Z,5.53
2023-05-14T14:06:31.995Z,5.25
2023-05-14T14:08:58.843Z,4.82
2023-05-14T14:11:25.968Z,4.95
2023-05-14T14:13:53.336Z,5.18
2023-05-14T14:16:20.409Z,5.13
2023-05-14T14:18:47.266Z,5.80
2023-05-14T14:21:17.873Z,5.18
2023-05-14T14:23:47.383Z,6.18
2023-05-14T14:26:14.507Z,5.57
2023-05-14T14:28:41.511Z,5.65
2023-05-14T14:31:08.426Z,5.00
2023-05-14T14:33:35.335Z,4.70
2023-05-14T14:36:02.203Z,5.10
2023-05-14T14:38:29.012Z,4.70
2023-05-14T14:40:56.043Z,4.25
2023-05-14T14:43:23.039Z,4.50
2023-05-14T14:45:49.945Z,4.43
2023-05-14T14:48:28.144Z,4.45
2023-05-14T14:50:55.730Z,4.55
2023-05-14T14:53:23.837Z,4.50
2023-05-14T14:55:51.836Z,4.45
2023-05-14T14:58:20.727Z,4.32
2023-05-14T15:00:49.368Z,4.63
2023-05-14T15:03:16.296Z,4.85
2023-05-14T15:05:43.385Z,4.80
2023-05-14T15:08:10.792Z,4.88
2023-05-14T15:10:38.398Z,5.18
2023-05-14T15:13:07.432Z,5.07
2023-05-14T15:15:35.952Z,5.30
2023-05-14T15:18:04.389Z,4.72
2023-05-14T15:20:31.495Z,5.15
2023-05-14T15:22:58.353Z,5.60
2023-05-14T15:25:26.767Z,4.75
2023-05-14T15:27:53.786Z,5.40
2023-05-14T15:30:20.935Z,5.22
2023-05-14T15:32:47.895Z,5.45
2023-05-14T15:35:14.716Z,5.88
2023-05-14T15:37:44.677Z,5.18
2023-05-14T15:40:12.546Z,5.32
2023-05-14T15:42:44.048Z,5.50
2023-05-14T15:45:13.454Z,5.93
2023-05-14T15:47:41.815Z,6.30
2023-05-14T15:50:09.308Z,4.45
2023-05-14T15:52:36.560Z,5.35
2023-05-14T15:55:06.102Z,4.88
2023-05-14T15:57:33.942Z,5.47
2023-05-14T16:00:00.831Z,5.35
2023-05-14T16:02:30.465Z,5.80
2023-05-14T16:04:57.454Z,5.85
2023-05-14T16:07:24.356Z,5.75
2023-05-14T16:09:51.199Z,4.95
2023-05-14T16:12:18.177Z,5.80
2023-05-14T16:14:45.413Z,6.05
2023-05-14T16:17:12.440Z,6.00
2023-05-14T16:19:39.686Z,5.85
2023-05-14T16:22:06.544Z,5.38
2023-05-14T16:24:33.528Z,6.03
2023-05-14T16:27:00.806Z,5.57
2023-05-14T16:29:27.903Z,5.70
2023-05-14T16:31:55.032Z,5.78
2023-05-14T16:34:21.899Z,5.60
2023-05-14T16:36:48.760Z,6.20
2023-05-14T16:39:16.592Z,6.53
2023-05-14T16:41:43.409Z,6.07
2023-05-14T16:44:10.235Z,5.80
2023-05-14T16:46:37.069Z,6.30
2023-05-14T16:49:04.285Z,5.70
2023-05-14T16:51:31.740Z,6.18
2023-05-14T16:53:58.722Z,6.00
2023-05-14T16:56:26.520Z,5.82
2023-05-14T16:58:53.404Z,5.68
2023-05-14T17:01:20.232Z,6.10
2023-05-14T17:03:47.013Z,5.63
2023-05-14T17:06:13.901Z,5.88
2023-05-14T17:11:07.981Z,5.90
2023-05-14T17:13:34.850Z,6.43
2023-05-14T17:16:02.132Z,6.20
2023-05-14T17:18:29.186Z,5.63
2023-05-14T17:20:56.556Z,5.57
2023-05-14T17:23:23.661Z,5.53
2023-05-14T17:25:51.136Z,5.43
2023-05-14T17:28:18.044Z,6.40
2023-05-14T17:30:44.904Z,6.60
2023-05-14T17:33:11.890Z,6.57
2023-05-14T17:35:39.103Z,6.70
2023-05-14T17:38:06.438Z,6.25
2023-05-14T17:40:33.587Z,6.32
2023-05-14T17:43:00.867Z,7.13
2023-05-14T17:45:29.502Z,6.65
2023-05-14T17:47:59.164Z,6.97
2023-05-14T17:50:26.358Z,7.50
2023-05-14T17:52:53.994Z,8.70
2023-05-14T17:55:21.847Z,8.35
2023-05-14T17:57:48.871Z,9.00
2023-05-14T18:00:15.973Z,10.02
2023-05-14T18:02:42.873Z,10.10
2023-05-14T18:05:10.178Z,10.70
2023-05-14T18:07:37.238Z,11.88
2023-05-14T18:10:04.825Z,11.82
2023-05-14T18:12:31.672Z,11.07
2023-05-14T18:14:58.479Z,10.93
2023-05-14T18:17:25.396Z,11.77
2023-05-14T18:19:52.247Z,11.05
2023-05-14T18:22:21.516Z,10.27
2023-05-14T18:24:48.360Z,11.07
2023-05-14T18:27:15.711Z,10.98
2023-05-14T18:29:43.420Z,10.82
2023-05-14T18:32:10.267Z,10.95
2023-05-14T18:34:37.010Z,12.10
2023-05-14T18:37:03.854Z,11.30
2023-05-14T18:39:30.670Z,10.77
2023-05-14T18:41:57.531Z,10.95
2023-05-14T18:44:24.342Z,11.32
2023-05-14T18:46:51.274Z,11.38
2023-05-14T18:49:18.075Z,9.88
2023-05-14T18:51:44.895Z,10.95
2023-05-14T18:54:11.758Z,10.93
2023-05-14T18:56:40.029Z,11.02
2023-05-14T18:59:06.910Z,10.32
2023-05-14T19:01:33.958Z,11.27
2023-05-14T19:04:03.083Z,11.10
2023-05-14T19:06:31.682Z,10.25
2023-05-14T19:08:59.018Z,11.20
2023-05-14T19:11:26.322Z,8.73
2023-05-14T19:13:53.277Z,10.68
2023-05-14T19:16:20.295Z,10.93
2023-05-14T19:18:47.244Z,10.32
2023-05-14T19:21:15.363Z,11.32
2023-05-14T19:23:42.260Z,10.35
2023-05-14T19:26:09.215Z,10.90
2023-05-14T19:28:37.994Z,10.88
2023-05-14T19:31:06.010Z,11.50
2023-05-14T19:33:32.838Z,10.73
2023-05-14T19:35:59.715Z,11.95
2023-05-14T19:38:26.603Z,10.55
2023-05-14T19:40:56.842Z,11.55
2023-05-14T19:43:25.654Z,12.63
2023-05-14T19:45:52.824Z,12.15
2023-05-14T19:48:19.812Z,11.98
2023-05-14T19:50:47.295Z,11.75
2023-05-14T19:53:14.586Z,11.15
2023-05-14T19:55:41.833Z,11.18
2023-05-14T19:58:09.045Z,12.07
2023-05-14T20:00:37.008Z,12.00
2023-05-14T20:03:05.844Z,12.05
2023-05-14T20:05:34.440Z,12.23
2023-05-14T20:08:01.316Z,12.30
2023-05-14T20:10:28.426Z,12.70
2023-05-14T20:12:55.425Z,11.88
2023-05-14T20:15:22.195Z,10.82
2023-05-14T20:17:50.735Z,12.32
2023-05-14T20:20:17.723Z,10.55
2023-05-14T20:22:44.700Z,11.40
2023-05-14T20:25:12.372Z,11.57
2023-05-14T20:27:41.166Z,11.45
2023-05-14T20:30:08.726Z,10.93
2023-05-14T20:32:35.662Z,11.82
2023-05-14T20:35:02.913Z,11.95
2023-05-14T20:37:33.232Z,11.48
2023-05-14T20:40:02.125Z,10.57
2023-05-14T20:42:28.942Z,10.20
2023-05-14T20:44:55.828Z,11.10
2023-05-14T20:47:26.688Z,10.68
2023-05-14T20:49:53.696Z,10.70
2023-05-14T20:52:20.537Z,10.85
2023-05-14T20:54:49.022Z,10.50
2023-05-14T20:57:16.093Z,12.00
2023-05-14T20:59:43.310Z,10.57
2023-05-14T21:02:10.795Z,11.30
2023-05-14T21:04:38.394Z,10.32
2023-05-14T21:07:06.228Z,11.57
2023-05-14T21:09:33.353Z,11.38
2023-05-14T21:12:00.282Z,11.15
2023-05-14T21:14:27.068Z,12.60
2023-05-14T21:16:53.957Z,11.63
2023-05-14T21:19:20.798Z,12.13
2023-05-14T21:21:47.635Z,11.90
2023-05-14T21:24:16.699Z,11.30
2023-05-14T21:26:43.684Z,11.63
2023-05-14T21:29:11.047Z,11.10
2023-05-14T21:31:37.906Z,11.82
2023-05-14T21:34:04.753Z,11.07
2023-05-14T21:36:31.889Z,11.18
2023-05-14T21:38:58.699Z,10.85
2023-05-14T21:41:25.706Z,11.25
2023-05-14T21:43:52.545Z,11.32
2023-05-14T21:46:19.476Z,11.55
2023-05-14T21:48:47.457Z,11.07
2023-05-14T21:51:14.620Z,11.85
2023-05-14T21:53:41.478Z,10.75
2023-05-14T21:56:08.317Z,10.75
2023-05-14T21:58:35.971Z,10.93
2023-05-14T22:01:03.075Z,11.95
2023-05-14T22:03:30.095Z,10.93
2023-05-14T22:05:57.377Z,11.57
2023-05-14T22:08:24.334Z,11.85
2023-05-14T22:10:51.132Z,11.65
2023-05-14T22:13:18.029Z,10.18
2023-05-14T22:15:45.013Z,11.38
2023-05-14T22:18:12.919Z,10.95
2023-05-14T22:20:40.145Z,11.00
2023-05-14T22:23:07.162Z,13.07
2023-05-14T22:25:34.372Z,11.80
2023-05-14T22:28:01.315Z,12.20
2023-05-14T22:30:28.203Z,11.43
2023-05-14T22:32:55.067Z,11.85
2023-05-14T22:35:22.049Z,11.73
2023-05-14T22:37:48.913Z,12.05
2023-05-14T22:40:16.131Z,11.32
2023-05-14T22:42:43.054Z,11.52
2023-05-14T22:45:10.573Z,12.15
2023-05-14T22:47:38.524Z,11.20
2023-05-14T22:50:11.348Z,12.32
2023-05-14T22:52:39.302Z,12.07
2023-05-14T22:55:06.852Z,10.55
2023-05-14T22:57:34.642Z,11.90
2023-05-14T23:00:04.886Z,11.18
2023-05-14T23:02:31.803Z,13.27
2023-05-14T23:04:58.609Z,13.13
2023-05-14T23:07:25.543Z,12.55
2023-05-14T23:09:52.367Z,11.73
2023-05-14T23:12:19.157Z,12.48
2023-05-14T23:14:46.031Z,11.23
2023-05-14T23:17:13.011Z,12.55
2023-05-14T23:19:39.829Z,11.07
2023-05-14T23:22:06.710Z,13.13
2023-05-14T23:24:33.525Z,12.20
2023-05-14T23:27:00.718Z,11.63
2023-05-14T23:29:27.508Z,11.27
2023-05-14T23:31:54.544Z,11.63
2023-05-14T23:34:22.192Z,11.23
2023-05-14T23:36:49.823Z,9.90
2023-05-14T23:39:17.033Z,11.27
2023-05-14T23:41:43.917Z,10.85
2023-05-14T23:44:10.857Z,10.65
2023-05-14T23:46:37.781Z,11.05
2023-05-14T23:49:05.217Z,11.25
2023-05-14T23:51:32.089Z,11.68
2023-05-14T23:53:58.927Z,12.55
2023-05-14T23:56:28.965Z,11.25
2023-05-14T23:58:56.796Z,12.55
